Time;durP1;ratioP1;P1;durP2;ratioP2;P2;SDS_P1;SDS_P2;PMS_P1;PMS_P2;Temp;Humidity;BMP_temperature;BMP_pressure;BME280_temperature;BME280_humidity;BME280_pressure;Samples;Min_cycle;Max_cycle;Signal;HPM_P1;HPM_P2
2023/01/03 00:00:44;;;;;;;921.37;473.83;;;4.00;99.90;;;;;;4768193;30;20903;-87
2023/01/03 00:08:14;;;;;;;;;;;;;;;;;;;;;
2023/01/03 00:15:44;;;;;;;;;;;;;;;;;;;;;
2023/01/03 00:19:34;;;;;;;;;;;;;;;;;;;;;
2023/01/03 00:27:24;;;;;;;;;;;;;;;;;;;;;
2023/01/03 00:47:31;;;;;;;931.13;376.67;;;3.60;99.90;;;;;;4880101;29;20097;-87
2023/01/03 00:59:21;;;;;;;921.27;387.40;;;3.80;99.90;;;;;;4849978;29;20314;-87
2023/01/03 01:15:01;;;;;;;848.40;377.43;;;3.90;99.90;;;;;;4734894;30;20318;-86
2023/01/03 01:53:12;;;;;;;1220.83;425.97;;;3.90;99.90;;;;;;4897758;29;20088;-87
2023/01/03 02:00:13;;;;;;;1378.33;493.83;;;3.90;99.90;;;;;;4978049;28;20093;-87
2023/01/03 02:04:07;;;;;;;1352.03;502.27;;;3.90;99.90;;;;;;5006082;28;20100;-87
2023/01/03 02:19:20;;;;;;;1292.73;423.40;;;4.10;99.90;;;;;;4823465;29;20151;-88
2023/01/03 02:37:40;;;;;;;1.25;0.50;;;4.20;99.90;;;;;;4767020;29;20114;-87
2023/01/03 02:41:40;;;;;;;;;;;;;;;;;;;;;
2023/01/03 02:53:01;;;;;;;2.00;0.40;;;4.20;99.90;;;;;;4804697;29;20134;-86
2023/01/03 03:04:03;;;;;;;1.55;0.60;;;4.10;99.90;;;;;;4786133;29;20074;-86
2023/01/03 03:18:23;;;;;;;1201.83;518.80;;;3.80;99.90;;;;;;4797355;29;20065;-87
2023/01/03 03:30:06;;;;;;;;;;;;;;;;;;;;;
2023/01/03 03:33:43;;;;;;;1280.03;492.90;;;3.20;99.90;;;;;;4759993;30;20065;-88
2023/01/03 03:54:22;;;;;;;1204.43;412.53;;;2.90;99.90;;;;;;4766978;30;20069;-88
2023/01/03 04:02:15;;;;;;;;;;;;;;;;;;;;;
2023/01/03 04:21:56;;;;;;;;;;;;;;;;;;;;;
2023/01/03 04:25:12;;;;;;;1235.00;410.83;;;2.40;99.90;;;;;;4873234;29;20597;-87
2023/01/03 04:35:29;;;;;;;1209.93;417.20;;;2.20;99.90;;;;;;4991449;28;20137;-84
2023/01/03 04:44:00;;;;;;;1224.63;490.60;;;2.00;99.90;;;;;;4916643;29;20107;-87
2023/01/03 04:54:20;;;;;;;;;;;;;;;;;;;;;
2023/01/03 04:57:18;;;;;;;;;;;2.00;99.90;;;;;;4935651;29;20058;-87
2023/01/03 05:00:57;;;;;;;1156.83;399.93;;;2.10;99.90;;;;;;4935997;29;19923;-87
2023/01/03 05:08:38;;;;;;;;;;;;;;;;;;;;;
2023/01/03 05:12:23;;;;;;;1178.27;415.77;;;2.20;99.90;;;;;;4829647;29;20083;-86
2023/01/03 05:15:53;;;;;;;1196.63;488.90;;;2.10;99.90;;;;;;4839933;29;20054;-86
2023/01/03 05:30:40;;;;;;;;;;;;;;;;;;;;;
2023/01/03 05:52:26;;;;;;;1249.57;479.93;;;2.70;99.90;;;;;;4972966;28;20494;-87
2023/01/03 05:55:41;;;;;;;1265.57;485.30;;;2.70;99.90;;;;;;4953357;28;20086;-88
2023/01/03 06:07:16;;;;;;;1276.53;527.63;;;4.20;99.90;;;;;;4935293;29;20095;-87
2023/01/03 06:10:51;;;;;;;1264.67;483.80;;;2.90;99.90;;;;;;4840872;29;20186;-88
2023/01/03 06:18:10;;;;;;;1283.77;490.83;;;3.00;99.90;;;;;;4823103;29;20146;-88
2023/01/03 06:21:24;;;;;;;1285.60;487.50;;;3.00;99.90;;;;;;4787273;30;20247;-86
2023/01/03 06:32:13;;;;;;;1262.73;415.03;;;3.00;99.90;;;;;;4787285;29;20070;-87
2023/01/03 06:35:55;;;;;;;1270.67;482.47;;;3.10;99.90;;;;;;4769155;30;20050;-86
2023/01/03 06:59:52;;;;;;;1212.03;407.93;;;2.70;99.90;;;;;;4952450;28;20041;-87
2023/01/03 07:23:29;;;;;;;1215.55;408.90;;;3.00;99.90;;;;;;4877527;29;20459;-86
2023/01/03 07:27:11;;;;;;;1249.93;479.37;;;2.50;99.90;;;;;;4895607;29;20108;-87
2023/01/03 07:34:48;;;;;;;;;;;;;;;;;;;;;
2023/01/03 07:45:14;;;;;;;;;;;;;;;;;;;;;
2023/01/03 07:48:06;;;;;;;1174.57;491.27;;;2.10;99.90;;;;;;4926426;28;20133;-87
2023/01/03 07:51:09;;;;;;;1199.43;491.33;;;2.10;99.90;;;;;;4975258;28;20101;-87
2023/01/03 07:57:29;;;;;;;1199.10;408.97;;;2.00;99.90;;;;;;4974710;28;20066;-87
2023/01/03 08:00:47;;;;;;;1229.20;483.40;;;1.90;99.90;;;;;;4990088;28;20127;-86
2023/01/03 08:03:51;;;;;;;1164.27;485.30;;;1.90;99.90;;;;;;5052878;28;20052;-86
2023/01/03 08:06:57;;;;;;;1192.30;409.43;;;2.00;99.90;;;;;;5033042;28;20059;-87
2023/01/03 08:13:51;;;;;;;1203.83;418.63;;;1.80;99.90;;;;;;5070450;28;20048;-88
2023/01/03 08:17:20;;;;;;;1175.67;479.37;;;1.80;99.90;;;;;;5069123;28;20053;-88
2023/01/03 08:20:52;;;;;;;1142.53;407.80;;;1.40;99.90;;;;;;4993129;28;20062;-87
2023/01/03 08:23:52;;;;;;;1183.83;406.53;;;1.90;99.90;;;;;;4989982;28;20121;-86
2023/01/03 08:27:03;;;;;;;;;;;;;;;;;;;;;
2023/01/03 08:30:38;;;;;;;1217.37;484.17;;;1.80;99.90;;;;;;4968883;28;20101;-86
2023/01/03 08:34:05;;;;;;;1216.20;481.27;;;1.80;99.90;;;;;;4994840;28;20057;-85
2023/01/03 08:37:13;;;;;;;;;;;;;;;;;;;;;
2023/01/03 08:40:20;;;;;;;1163.00;408.43;;;1.60;99.90;;;;;;4978654;28;20067;-87
2023/01/03 08:43:50;;;;;;;1180.43;479.40;;;1.60;99.90;;;;;;4975211;28;20435;-88
2023/01/03 08:47:13;;;;;;;1180.80;477.90;;;1.60;99.90;;;;;;4972866;28;20085;-87
2023/01/03 08:50:26;;;;;;;;;;;;;;;;;;;;;
2023/01/03 08:57:39;;;;;;;1160.93;399.83;;;1.60;99.90;;;;;;4949372;28;20047;-87
2023/01/03 09:01:19;;;;;;;1175.30;483.90;;;1.70;99.90;;;;;;4937135;28;20058;-92
2023/01/03 09:11:51;;;;;;;1178.17;486.07;;;1.90;99.90;;;;;;4957131;28;20046;-88
2023/01/03 09:15:06;;;;;;;;;;;;;;;;;;;;;
2023/01/03 09:21:48;;;;;;;;;;;;;;;;;;;;;
2023/01/03 09:25:19;;;;;;;1157.57;405.70;;;2.00;99.90;;;;;;4954985;28;20047;-87
2023/01/03 09:28:45;;;;;;;1142.03;399.53;;;1.60;99.90;;;;;;4937415;29;20051;-87
2023/01/03 09:32:01;;;;;;;1171.97;479.13;;;2.20;99.90;;;;;;4954134;28;20047;-87
2023/01/03 09:35:21;;;;;;;1178.30;482.30;;;2.40;99.90;;;;;;5072424;28;20057;-88
2023/01/03 09:38:51;;;;;;;1159.53;406.73;;;2.40;99.90;;;;;;5074652;28;20040;-90
2023/01/03 09:49:46;;;;;;;1167.85;407.08;;;2.80;99.90;;;;;;4971375;28;20467;-88
2023/01/03 10:03:48;;;;;;;1201.37;486.37;;;2.90;99.90;;;;;;4881186;29;20068;-88
2023/01/03 10:07:23;;;;;;;1194.37;484.87;;;2.90;99.90;;;;;;4896795;29;20401;-88
2023/01/03 10:11:01;;;;;;;1165.70;410.20;;;2.80;99.90;;;;;;4897214;29;20051;-87
2023/01/03 10:18:02;;;;;;;1179.23;410.73;;;2.80;99.90;;;;;;4896062;29;20062;-89
2023/01/03 10:21:18;;;;;;;1171.90;407.37;;;2.70;99.90;;;;;;4892190;29;20055;-87
2023/01/03 10:24:28;;;;;;;1199.53;483.40;;;2.70;99.90;;;;;;4934108;29;20182;-89
2023/01/03 10:27:45;;;;;;;1169.67;404.73;;;2.60;99.90;;;;;;4952446;29;20094;-88
2023/01/03 10:31:18;;;;;;;;;;;;;;;;;;;;;
2023/01/03 10:34:22;;;;;;;1165.73;408.43;;;2.60;99.90;;;;;;4953498;28;20415;-88
2023/01/03 10:41:19;;;;;;;1150.43;404.73;;;2.60;99.90;;;;;;5024425;28;20099;-92
2023/01/03 10:44:59;;;;;;;1157.40;477.43;;;2.60;99.90;;;;;;5058843;28;20191;-86
2023/01/03 10:47:59;;;;;;;1181.30;485.13;;;2.70;99.90;;;;;;4991691;28;20081;-91
2023/01/03 10:50:36;;;;;;;1167.53;477.70;;;2.70;99.90;;;;;;4989937;28;20046;-91
2023/01/03 10:53:08;;;;;;;1175.18;406.33;;;2.70;99.90;;;;;;4981777;28;20149;-87
2023/01/03 10:55:44;;;;;;;1208.77;480.77;;;2.80;99.90;;;;;;4975861;28;20257;-86
2023/01/03 10:58:24;;;;;;;1181.70;411.50;;;2.80;99.90;;;;;;4991416;28;20184;-86
2023/01/03 11:01:08;;;;;;;1211.40;479.93;;;2.80;99.90;;;;;;4975851;28;20124;-88
2023/01/03 11:03:38;;;;;;;1214.97;480.23;;;2.90;99.90;;;;;;4972930;28;20053;-86
2023/01/03 11:10:01;;;;;;;1212.47;406.30;;;3.00;99.90;;;;;;4973001;28;20116;-87
2023/01/03 11:13:47;;;;;;;1202.07;404.93;;;3.00;99.90;;;;;;4965160;28;20055;-86
2023/01/03 11:17:19;;;;;;;1218.97;404.70;;;3.10;99.90;;;;;;4970633;28;20054;-86
2023/01/03 11:20:51;;;;;;;;;;;3.20;99.90;;;;;;4971671;28;20051;-87
2023/01/03 11:24:12;;;;;;;1216.83;409.77;;;3.00;99.90;;;;;;4965491;28;20057;-87
2023/01/03 11:27:29;;;;;;;1209.80;401.37;;;3.30;99.90;;;;;;4990989;28;20050;-89
2023/01/03 11:30:52;;;;;;;1228.67;412.73;;;3.40;99.90;;;;;;4991661;28;20050;-87
2023/01/03 11:34:07;;;;;;;1205.50;410.67;;;3.50;99.90;;;;;;4986977;28;20097;-88
2023/01/03 11:37:55;;;;;;;1244.23;483.33;;;3.60;99.90;;;;;;4988441;28;20546;-87
2023/01/03 11:41:50;;;;;;;1213.20;417.03;;;3.70;99.90;;;;;;4979549;28;20046;-87
2023/01/03 11:53:50;;;;;;;1205.90;485.03;;;4.30;99.90;;;;;;4937025;29;20052;-87
2023/01/03 11:57:30;;;;;;;1190.85;410.50;;;4.30;99.90;;;;;;4865301;29;20049;-85
2023/01/03 12:00:33;;;;;;;1225.27;493.10;;;4.50;99.90;;;;;;4898596;29;20510;-89
2023/01/03 12:03:51;;;;;;;1162.37;416.57;;;4.60;99.90;;;;;;4899795;29;20045;-88
2023/01/03 12:06:26;;;;;;;1221.60;496.33;;;4.70;99.90;;;;;;4898177;29;20048;-85
2023/01/03 12:09:40;;;;;;;1217.20;501.10;;;4.80;99.90;;;;;;4898004;29;20051;-87
2023/01/03 12:13:12;;;;;;;1176.93;420.73;;;4.80;99.90;;;;;;4899179;29;20096;-87
2023/01/03 12:16:23;;;;;;;1213.97;496.33;;;4.90;99.90;;;;;;4898730;29;20532;-85
2023/01/03 12:20:07;;;;;;;1183.13;425.83;;;4.90;99.90;;;;;;4862035;29;20588;-86
2023/01/03 12:23:35;;;;;;;1219.57;495.00;;;5.00;99.90;;;;;;4878075;29;20140;-86
2023/01/03 12:27:05;;;;;;;1232.87;502.53;;;5.00;99.90;;;;;;4838364;29;20137;-86
2023/01/03 12:30:33;;;;;;;1221.73;494.93;;;5.10;99.90;;;;;;4824470;29;20052;-89
2023/01/03 12:33:41;;;;;;;1184.87;439.40;;;5.10;99.90;;;;;;4880114;29;20563;-88
2023/01/03 12:37:07;;;;;;;1187.37;435.70;;;5.10;99.90;;;;;;4879867;29;20089;-87
2023/01/03 12:40:21;;;;;;;1203.63;492.33;;;5.20;99.90;;;;;;4854016;29;20530;-86
2023/01/03 12:44:05;;;;;;;1199.53;495.23;;;5.20;99.90;;;;;;4875682;29;20063;-86
2023/01/03 12:47:52;;;;;;;1203.23;499.47;;;5.30;99.90;;;;;;4846767;29;20073;-88
2023/01/03 12:50:48;;;;;;;1198.97;500.27;;;5.30;99.90;;;;;;4860555;29;20567;-83
2023/01/03 12:54:01;;;;;;;1193.03;497.57;;;5.30;99.90;;;;;;4859006;29;20128;-82
2023/01/03 12:57:38;;;;;;;1188.90;497.77;;;5.40;99.90;;;;;;4863855;29;20061;-86
2023/01/03 13:01:20;;;;;;;1187.97;498.57;;;5.40;99.90;;;;;;4884066;29;20116;-84
2023/01/03 13:05:13;;;;;;;;;;;;;;;;;;;;;
2023/01/03 13:08:55;;;;;;;;;;;;;;;;;;;;;
2023/01/03 13:12:19;;;;;;;1154.63;429.40;;;5.50;99.90;;;;;;5068569;28;20179;-88
2023/01/03 13:15:28;;;;;;;1163.07;440.87;;;5.60;99.90;;;;;;5009272;28;20054;-84
2023/01/03 13:18:36;;;;;;;1181.60;489.10;;;5.60;99.90;;;;;;5002474;28;20046;-87
2023/01/03 13:21:59;;;;;;;934.33;409.13;;;5.70;99.90;;;;;;5011582;28;20140;-85
2023/01/03 13:24:50;;;;;;;1093.67;493.73;;;5.70;99.90;;;;;;4994224;28;20054;-91
2023/01/03 13:27:50;;;;;;;1085.07;453.30;;;5.80;99.90;;;;;;4998763;28;20081;-86
2023/01/03 13:30:31;;;;;;;948.50;395.60;;;5.70;99.90;;;;;;4994302;28;20150;-84
2023/01/03 13:33:22;;;;;;;810.83;378.70;;;5.80;99.90;;;;;;5012757;28;20045;-88
2023/01/03 13:36:10;;;;;;;962.63;430.77;;;5.80;99.90;;;;;;4996822;28;20089;-82
2023/01/03 13:38:52;;;;;;;911.87;406.40;;;5.90;99.90;;;;;;5011046;28;20085;-87
2023/01/03 13:41:37;;;;;;;765.92;363.50;;;5.90;99.90;;;;;;5013521;28;20038;-84
2023/01/03 13:44:22;;;;;;;826.10;384.33;;;6.00;99.90;;;;;;5011784;28;20045;-87
2023/01/03 13:46:54;;;;;;;834.63;382.47;;;6.30;99.90;;;;;;5018266;28;20053;-83
2023/01/03 13:49:30;;;;;;;849.07;392.17;;;6.10;99.90;;;;;;5011912;28;20096;-82
2023/01/03 13:52:04;;;;;;;789.57;379.03;;;6.00;99.90;;;;;;5074646;28;20044;-83
2023/01/03 13:55:00;;;;;;;851.80;397.43;;;6.10;99.90;;;;;;5060568;28;20454;-81
2023/01/03 13:57:38;;;;;;;849.47;388.17;;;6.10;99.90;;;;;;5005592;28;20145;-81
2023/01/03 14:00:22;;;;;;;552.20;306.15;;;6.10;99.90;;;;;;5013092;28;20050;-82
2023/01/03 14:03:35;;;;;;;623.40;326.05;;;6.20;99.90;;;;;;5013039;28;20050;-87
2023/01/03 14:06:47;;;;;;;672.40;366.60;;;6.20;99.90;;;;;;5021684;28;20502;-83
2023/01/03 14:09:26;;;;;;;544.92;304.50;;;6.20;99.90;;;;;;4994427;28;20079;-83
2023/01/03 14:12:34;;;;;;;426.15;269.30;;;6.20;99.90;;;;;;5021141;28;20045;-82
2023/01/03 14:15:28;;;;;;;513.80;359.92;;;6.20;99.90;;;;;;5016011;28;20045;-81
2023/01/03 14:18:26;;;;;;;474.35;351.63;;;6.20;99.90;;;;;;5011901;28;20038;-83
2023/01/03 14:21:04;;;;;;;396.00;340.63;;;6.20;99.90;;;;;;5012271;28;20057;-82
2023/01/03 14:23:43;;;;;;;537.53;311.65;;;6.30;99.90;;;;;;4992583;28;20121;-84
2023/01/03 14:26:20;;;;;;;653.97;367.65;;;6.30;99.90;;;;;;4977155;28;20057;-86
2023/01/03 14:28:54;;;;;;;901.50;437.33;;;6.00;99.90;;;;;;4990192;28;20061;-86
2023/01/03 14:31:36;;;;;;;721.35;400.33;;;6.30;99.90;;;;;;5010553;28;20054;-83
2023/01/03 14:34:43;;;;;;;1068.50;489.30;;;6.40;99.90;;;;;;5034378;28;20450;-86
2023/01/03 14:37:31;;;;;;;43.35;38.72;;;6.30;99.90;;;;;;5073689;28;20044;-83
2023/01/03 14:40:09;;;;;;;926.77;419.73;;;6.40;99.90;;;;;;5072194;28;20041;-83
2023/01/03 14:42:45;;;;;;;900.57;459.63;;;6.40;99.90;;;;;;5073806;28;20047;-84
2023/01/03 14:45:20;;;;;;;616.13;429.02;;;6.40;99.90;;;;;;5073172;28;20048;-82
2023/01/03 14:47:54;;;;;;;578.65;332.08;;;6.40;99.90;;;;;;5074029;28;20055;-83
2023/01/03 14:50:34;;;;;;;641.25;433.10;;;6.40;99.90;;;;;;5055286;28;20074;-84
2023/01/03 14:53:13;;;;;;;301.27;226.00;;;6.40;99.90;;;;;;5053487;28;20052;-84
2023/01/03 14:56:12;;;;;;;616.20;351.70;;;6.40;99.90;;;;;;5067878;28;20132;-89
2023/01/03 14:58:48;;;;;;;490.10;394.88;;;6.50;99.90;;;;;;5078882;28;20392;-85
2023/01/03 15:01:27;;;;;;;337.73;261.98;;;6.40;99.90;;;;;;5072757;28;20135;-84
2023/01/03 15:05:11;;;;;;;206.00;187.82;;;6.60;99.90;;;;;;5066562;28;20519;-86
2023/01/03 15:08:50;;;;;;;368.00;341.42;;;6.50;99.90;;;;;;5013217;28;20065;-87
2023/01/03 15:12:33;;;;;;;975.10;458.07;;;6.50;99.90;;;;;;5024960;28;20118;-88
2023/01/03 15:16:25;;;;;;;1245.17;510.30;;;6.60;99.90;;;;;;4972960;28;20070;-89
2023/01/03 15:28:18;;;;;;;15.20;6.47;;;6.60;99.90;;;;;;4822632;29;20184;-85
2023/01/03 15:31:37;;;;;;;23.13;15.65;;;6.60;99.90;;;;;;4804545;29;20034;-88
2023/01/03 15:46:51;;;;;;;;;;;;;;;;;;;;;
2023/01/03 15:54:20;;;;;;;1189.20;500.00;;;6.70;99.90;;;;;;5132278;28;20042;-91
2023/01/03 15:57:53;;;;;;;1119.73;450.73;;;6.70;99.90;;;;;;5143349;27;20038;-88
2023/01/03 16:28:36;;;;;;;;;;;;;;;;;;;;;
2023/01/03 16:40:28;;;;;;;776.50;425.88;;;6.80;99.90;;;;;;4877187;29;20045;-91
2023/01/03 16:44:01;;;;;;;;;;;;;;;;;;;;;
2023/01/03 16:47:00;;;;;;;866.27;434.30;;;6.70;99.90;;;;;;4945621;28;20062;-90
2023/01/03 16:50:02;;;;;;;792.25;364.48;;;7.00;99.90;;;;;;4932995;29;20063;-89
2023/01/03 16:57:34;;;;;;;761.90;363.57;;;6.70;99.90;;;;;;4964862;28;20403;-90
2023/01/03 17:04:02;;;;;;;744.20;355.00;;;6.70;99.90;;;;;;4958905;28;20439;-86
2023/01/03 17:10:57;;;;;;;827.97;435.43;;;6.30;99.90;;;;;;4994222;28;20534;-89
2023/01/03 17:14:14;;;;;;;;;;;;;;;;;;;;;
2023/01/03 17:17:26;;;;;;;825.10;419.23;;;6.70;99.90;;;;;;4975026;28;20206;-87
2023/01/03 17:19:53;;;;;;;841.00;423.43;;;6.70;99.90;;;;;;5041331;28;20067;-90
2023/01/03 17:22:31;;;;;;;795.15;372.10;;;6.70;99.90;;;;;;5078073;28;20519;-92
2023/01/03 17:25:31;;;;;;;813.77;373.80;;;6.80;99.90;;;;;;5062260;28;20454;-94
2023/01/03 17:32:35;;;;;;;;;;;;;;;;;;;;;
2023/01/03 17:35:52;;;;;;;951.67;394.73;;;6.90;99.90;;;;;;4936146;29;20142;-91
2023/01/03 17:38:24;;;;;;;955.60;397.13;;;6.90;99.90;;;;;;4916747;29;20040;-90
2023/01/03 17:42:11;;;;;;;992.80;428.73;;;6.90;99.90;;;;;;4901491;29;20068;-91
2023/01/03 18:25:07;;;;;;;;;;;;;;;;;;;;;
2023/01/03 18:28:28;;;;;;;955.73;396.93;;;7.00;99.90;;;;;;4878797;29;20045;-90
2023/01/03 18:31:09;;;;;;;829.42;373.70;;;7.40;99.90;;;;;;4888114;29;20088;-89
2023/01/03 18:34:24;;;;;;;1161.37;454.47;;;7.00;99.90;;;;;;4862625;29;20060;-91
2023/01/03 18:37:39;;;;;;;1194.37;470.13;;;7.00;99.90;;;;;;4870558;29;20050;-90
2023/01/03 18:40:31;;;;;;;;;;;;;;;;;;;;;
2023/01/03 18:46:05;;;;;;;1144.25;449.27;;;7.00;99.90;;;;;;4618501;26;20049;-90
2023/01/03 18:49:32;;;;;;;;;;;;;;;;;;;;;
2023/01/03 18:53:09;;;;;;;1224.50;456.80;;;6.30;99.90;;;;;;4965276;28;20489;-88
2023/01/03 19:28:44;;;;;;;;;;;;;;;;;;;;;
2023/01/03 19:50:06;;;;;;;1184.70;457.17;;;7.00;99.90;;;;;;5055969;23;20067;-89
2023/01/03 19:57:48;;;;;;;1185.77;450.57;;;7.10;99.90;;;;;;4918209;29;20047;-89
2023/01/03 20:00:48;;;;;;;1081.67;434.80;;;7.10;99.90;;;;;;4910751;29;20044;-91
2023/01/03 20:10:44;;;;;;;1016.67;415.75;;;7.10;99.90;;;;;;5051770;23;20052;-90
2023/01/03 20:14:10;;;;;;;1146.50;459.03;;;7.10;99.90;;;;;;4842848;29;20156;-90
2023/01/03 20:17:18;;;;;;;1128.73;448.00;;;6.80;99.90;;;;;;4750542;29;20056;-91
2023/01/03 20:22:57;;;;;;;;;;;;;;;;;;;;;
2023/01/03 20:25:57;;;;;;;1152.27;459.60;;;7.10;99.90;;;;;;4898275;29;20116;-91
2023/01/03 20:28:49;;;;;;;1121.73;449.20;;;7.10;99.90;;;;;;4896888;29;20045;-90
2023/01/03 20:46:41;;;;;;;1280.00;477.17;;;7.20;99.90;;;;;;4737611;30;20043;-90
2023/01/03 21:23:58;;;;;;;1116.00;447.27;;;8.20;99.90;;;;;;4855985;29;20045;-89
2023/01/03 22:15:58;;;;;;;1078.83;431.77;;;7.60;99.90;;;;;;4734607;30;20163;-88
2023/01/03 22:19:38;;;;;;;1123.43;448.70;;;7.50;99.90;;;;;;4732645;30;20160;-89
2023/01/03 22:23:45;;;;;;;1147.35;418.98;;;7.20;99.90;;;;;;4165784;27;28689035;-88
2023/01/03 22:31:21;;;;;;;1247.40;466.70;;;7.40;99.90;;;;;;5069004;28;20036;-88
2023/01/03 22:39:03;;;;;;;1272.27;472.70;;;8.70;99.90;;;;;;4951470;28;20078;-88
2023/01/03 22:46:25;;;;;;;1286.43;481.00;;;7.70;99.90;;;;;;4931683;29;20046;-88
2023/01/03 23:07:08;;;;;;;1253.20;472.30;;;7.60;99.90;;;;;;4950267;28;20121;-89
2023/01/03 23:10:38;;;;;;;;;;;;;;;;;;;;;
2023/01/03 23:14:13;;;;;;;1302.87;491.27;;;7.80;99.90;;;;;;4912008;29;20080;-90
2023/01/03 23:40:31;;;;;;;1324.83;476.10;;;7.80;99.90;;;;;;5015146;28;20053;-90
2023/01/03 23:54:56;;;;;;;1299.50;469.67;;;8.00;99.90;;;;;;5053641;28;20068;-89
